Aérodrome :
LOGIN :

S'inscrire | Disclaimer

   EN    FR    IT 

 










Légende :    VFR   VFR Marginal   IFR   IFR Intensif   IFR Très Intensif
Visi : 
Plafond : 
>= 8 km
>= 3000ft
5 à 8 km
1000 à 3000 ft
1500m à 5 km
500 à 1000 ft
800 à 1500m
200 à 500 ft
< 800m
< 200 ft
Symboles :   Orages  Brouillard  Fortes neiges  Fortes précipitations  Vent > 20 kt
SIGMETs :   Divers  Orages  Givrage  Turbulence  Onde Orograph.  Cendres Volcan.







- Altitude de l'aérodrome : 157 ft
- Code IATA : LIL
- Voir les cartes d'approche


LFQQ - Lille Lesquin

DERNIER METAR :
  • 260000Z AUTO 04003KT CAVOK 21/15 Q1019 NOSIG

METARs EXPIRÉS :
  • 252330Z AUTO 09002KT CAVOK 22/14 Q1019 NOSIG
  • 252300Z AUTO 05003KT CAVOK 23/15 Q1019 NOSIG
  • 252230Z AUTO 04004KT CAVOK 23/15 Q1019 NOSIG
  • 252200Z AUTO 05004KT 010V100 CAVOK 24/15 Q1019 NOSIG
  • 252130Z AUTO 04005KT CAVOK 24/15 Q1019 NOSIG

TAF TAF LFQQ
Valide du 26 à 00h jusqu'au 27 à 06h UTC


252300Z 2600/2706 VRB03KT CAVOK
TEMPO 2617/2618 03013KT
ATIS : +33 3 20 16 19 54
Pas de NOTAMs connus pour ce terrain.



MET'MAP, la Météo Aéronautique d'un coup d'oeil ! - Copyright ORBIFLY Décembre 2007 - Disclaimer

ORBIFLY MET'MAP TEAM :

Programmation & Développement : Alexandra Zaïnal
Conception & Développement : Baudouin d'Aumeries
Co-Programmation & Développement : Marc-Olivier Méhu
Soutien technique & logistique : Manuel Goepfert

Contact : metmap@orbifly.com




SOURCES & CREDITS :

   NOAA